createdAt,value
2017-07-25T15:54:11.448Z,69.41
2017-07-25T15:56:40.187Z,69.93
2017-07-25T15:59:08.545Z,69.63
2017-07-25T16:01:37.043Z,70.68
2017-07-25T16:04:05.379Z,73.16
2017-07-25T16:06:34.120Z,75.36
2017-07-25T16:09:02.486Z,77.72
2017-07-25T16:11:30.840Z,74.67
2017-07-25T16:13:59.210Z,74.37
2017-07-25T16:16:27.551Z,72.96
2017-07-25T16:18:55.908Z,71.91
2017-07-25T16:21:24.256Z,72.11
2017-07-25T16:23:52.642Z,70.08
2017-07-25T16:26:20.983Z,69.60
2017-07-25T16:28:49.929Z,69.12
2017-07-25T16:31:18.277Z,69.22
2017-07-25T16:33:46.633Z,68.35
2017-07-25T16:36:15.389Z,68.34
2017-07-25T16:38:43.739Z,68.23
2017-07-25T16:41:12.109Z,68.40
2017-07-25T16:43:40.481Z,69.04
2017-07-25T16:46:08.831Z,68.23
2017-07-25T16:48:37.167Z,68.80
2017-07-25T16:51:05.536Z,68.99
2017-07-25T16:53:34.098Z,68.99
2017-07-25T16:56:03.037Z,69.13
2017-07-25T16:58:31.371Z,69.84
2017-07-25T17:00:59.716Z,70.16
2017-07-25T17:03:28.078Z,71.03
2017-07-25T17:05:56.426Z,70.78
2017-07-25T17:08:24.797Z,72.29
2017-07-25T17:10:53.144Z,72.13
2017-07-25T17:13:21.521Z,72.54
2017-07-25T17:15:49.868Z,73.81
2017-07-25T17:18:18.345Z,73.80
2017-07-25T17:20:46.697Z,74.33
2017-07-25T17:23:15.066Z,74.64
2017-07-25T17:25:43.430Z,74.67
2017-07-25T17:28:12.464Z,75.32
2017-07-25T17:30:40.828Z,75.11
2017-07-25T17:33:09.182Z,74.36
2017-07-25T17:35:37.950Z,75.86
2017-07-25T17:38:06.312Z,75.97
2017-07-25T17:40:34.668Z,76.17
2017-07-25T17:43:03.021Z,77.40
2017-07-25T17:45:31.778Z,78.11
2017-07-25T17:48:00.129Z,78.19
2017-07-25T17:50:28.611Z,79.11
2017-07-25T17:52:56.950Z,78.88
2017-07-25T17:55:25.685Z,79.23
2017-07-25T17:57:54.036Z,78.79
2017-07-25T18:00:22.376Z,78.62
2017-07-25T18:02:50.738Z,77.89
2017-07-25T18:05:19.092Z,78.53
2017-07-25T18:07:47.487Z,79.32
2017-07-25T18:12:50.536Z,79.83
2017-07-25T18:15:19.288Z,79.38
2017-07-25T18:17:47.644Z,80.00
2017-07-25T18:20:16.035Z,79.81
2017-07-25T18:22:44.399Z,80.02
2017-07-25T18:25:12.809Z,79.91
2017-07-25T18:27:41.684Z,80.12
2017-07-25T18:30:10.037Z,80.42
2017-07-25T18:32:38.413Z,80.46
2017-07-25T18:35:06.784Z,80.20
2017-07-25T18:37:35.149Z,79.89
2017-07-25T18:40:04.166Z,80.04
2017-07-25T18:42:32.537Z,80.06
2017-07-25T18:45:00.899Z,80.20
2017-07-25T18:47:29.640Z,80.42
2017-07-25T18:49:58.058Z,80.22
2017-07-25T18:52:26.845Z,79.39
2017-07-25T18:54:55.729Z,80.45
2017-07-25T18:57:24.099Z,81.06
2017-07-25T18:59:52.493Z,80.35
2017-07-25T19:02:20.861Z,80.64
2017-07-25T19:04:49.547Z,80.25
2017-07-25T19:07:17.976Z,81.14
2017-07-25T19:09:46.332Z,80.82
2017-07-25T19:12:15.122Z,81.32
2017-07-25T19:14:44.995Z,81.50
2017-07-25T19:17:17.011Z,81.67
2017-07-25T19:19:45.364Z,82.01
2017-07-25T19:22:13.721Z,81.99
2017-07-25T19:24:42.073Z,81.74
2017-07-25T19:27:10.510Z,81.29
2017-07-25T19:29:39.280Z,81.40
2017-07-25T19:32:07.627Z,81.14
2017-07-25T19:34:36.002Z,81.61
2017-07-25T19:37:04.361Z,80.80
2017-07-25T19:39:32.716Z,82.47
2017-07-25T19:42:01.463Z,82.76
2017-07-25T19:44:29.974Z,82.01
2017-07-25T19:46:58.427Z,81.71
2017-07-25T19:49:26.784Z,82.05
2017-07-25T19:51:55.296Z,82.29
2017-07-25T19:54:23.639Z,82.82
2017-07-25T19:56:52.019Z,82.50
2017-07-25T19:59:20.382Z,82.45
2017-07-25T20:01:49.182Z,82.32
2017-07-25T20:04:17.549Z,83.49
2017-07-25T20:06:46.499Z,83.19
2017-07-25T20:09:14.946Z,83.10
2017-07-25T20:11:43.657Z,83.82
2017-07-25T20:14:12.030Z,82.55
2017-07-25T20:16:40.411Z,83.84
2017-07-25T20:19:08.787Z,83.65
2017-07-25T20:21:37.161Z,83.81
2017-07-25T20:24:05.524Z,82.62
2017-07-25T20:26:33.924Z,83.24
2017-07-25T20:29:02.331Z,83.10
2017-07-25T20:31:30.693Z,83.05
2017-07-25T20:33:59.057Z,83.17
2017-07-25T20:36:27.421Z,83.31
2017-07-25T20:38:55.783Z,84.27
2017-07-25T20:41:24.542Z,84.66
2017-07-25T20:43:53.112Z,84.56
2017-07-25T20:46:21.513Z,84.41
2017-07-25T20:48:49.898Z,84.85
2017-07-25T20:51:18.299Z,84.80
2017-07-25T20:53:47.063Z,84.27
2017-07-25T20:56:15.439Z,85.12
2017-07-25T20:58:43.810Z,85.09
2017-07-25T21:01:13.466Z,85.33
2017-07-25T21:03:41.812Z,84.70
2017-07-25T21:06:10.180Z,84.88
2017-07-25T21:08:38.643Z,85.10
2017-07-25T21:11:07.255Z,84.86
2017-07-25T21:13:36.033Z,84.59
2017-07-25T21:16:04.390Z,84.79
2017-07-25T21:18:32.752Z,85.44
2017-07-25T21:21:01.104Z,85.47
2017-07-25T21:23:29.880Z,84.82
2017-07-25T21:25:58.248Z,84.92
2017-07-25T21:28:26.626Z,85.22
2017-07-25T21:30:55.010Z,85.58
2017-07-25T21:33:23.807Z,85.16
2017-07-25T21:35:52.664Z,85.78
2017-07-25T21:38:21.145Z,85.60
2017-07-25T21:40:49.518Z,86.40
2017-07-25T21:43:17.881Z,85.80
2017-07-25T21:45:46.262Z,85.60
2017-07-25T21:48:14.637Z,86.47
2017-07-25T21:50:43.009Z,86.11
2017-07-25T21:53:11.381Z,86.50
2017-07-25T21:55:39.856Z,87.11
2017-07-25T21:58:08.289Z,86.93
2017-07-25T22:00:36.935Z,86.66
2017-07-25T22:03:23.035Z,86.69
2017-07-25T22:05:51.556Z,86.14
2017-07-25T22:08:19.920Z,86.34
2017-07-25T22:10:48.291Z,86.92
2017-07-25T22:13:16.682Z,86.08
2017-07-25T22:15:45.031Z,87.35
2017-07-25T22:18:13.382Z,88.40
2017-07-25T22:20:42.162Z,87.86
2017-07-25T22:23:10.715Z,88.44
2017-07-25T22:25:39.084Z,86.98
2017-07-25T22:28:07.453Z,86.95
2017-07-25T22:30:35.823Z,87.93
2017-07-25T22:33:04.175Z,87.55
2017-07-25T22:35:32.955Z,87.61
2017-07-25T22:38:01.355Z,87.55
2017-07-25T22:40:30.111Z,87.24
2017-07-25T22:42:58.460Z,87.33
2017-07-25T22:45:26.922Z,87.05
2017-07-25T22:47:55.269Z,86.81
2017-07-25T22:50:24.033Z,87.81
2017-07-25T22:52:52.422Z,87.91
2017-07-25T22:55:20.769Z,87.46
2017-07-25T22:57:49.175Z,87.48
2017-07-25T23:00:17.548Z,88.33
2017-07-25T23:02:46.138Z,87.74
2017-07-25T23:05:14.491Z,88.16
2017-07-25T23:07:43.124Z,87.60
2017-07-25T23:10:11.887Z,87.62
2017-07-25T23:12:40.263Z,87.93
2017-07-25T23:15:08.611Z,87.59
2017-07-25T23:17:36.968Z,86.42
2017-07-25T23:20:05.341Z,86.40
2017-07-25T23:22:34.103Z,87.30
2017-07-25T23:25:02.478Z,87.81
2017-07-25T23:27:30.829Z,87.67
2017-07-25T23:29:59.426Z,86.89
2017-07-25T23:32:27.767Z,87.13
2017-07-25T23:34:56.147Z,87.45
2017-07-25T23:37:24.495Z,87.04
2017-07-25T23:39:53.293Z,86.54
2017-07-25T23:42:22.067Z,86.65
2017-07-25T23:44:50.412Z,86.84
2017-07-25T23:47:18.781Z,87.22
2017-07-25T23:49:47.422Z,86.00
2017-07-25T23:52:16.168Z,87.03
2017-07-25T23:54:44.521Z,87.45
2017-07-25T23:57:13.028Z,87.71
2017-07-25T23:59:41.423Z,87.46
